createdAt,value
2019-06-10T00:00:59.998Z,64.13
2019-06-10T00:03:46.623Z,64.91
2019-06-10T00:06:32.774Z,64.16
2019-06-10T00:09:20.914Z,62.87
2019-06-10T00:12:08.151Z,61.27
2019-06-10T00:14:56.685Z,63.07
2019-06-10T00:17:55.003Z,64.03
2019-06-10T00:20:31.355Z,62.41
2019-06-10T00:23:17.531Z,61.91
2019-06-10T00:26:08.066Z,61.68
2019-06-10T00:28:54.844Z,61.50
2019-06-10T00:31:41.772Z,61.41
2019-06-10T00:34:28.256Z,61.61
2019-06-10T00:37:15.049Z,62.51
2019-06-10T00:40:05.079Z,62.49
2019-06-10T00:42:50.728Z,62.37
2019-06-10T00:45:37.220Z,62.13
2019-06-10T00:48:28.861Z,61.96
2019-06-10T00:51:13.099Z,62.51
2019-06-10T00:54:02.029Z,62.01
2019-06-10T00:56:47.465Z,63.05
2019-06-10T00:59:33.804Z,63.04
2019-06-10T01:02:21.325Z,64.06
2019-06-10T01:05:07.622Z,64.32
2019-06-10T01:07:54.008Z,64.26
2019-06-10T01:10:43.266Z,62.73
2019-06-10T01:13:28.182Z,62.65
2019-06-10T01:16:15.574Z,62.38
2019-06-10T01:19:02.154Z,62.58
2019-06-10T01:21:48.345Z,62.60
2019-06-10T01:24:34.419Z,62.29
2019-06-10T01:27:21.249Z,62.36
2019-06-10T01:30:14.255Z,62.21
2019-06-10T01:32:55.944Z,62.23
2019-06-10T01:35:42.158Z,61.84
2019-06-10T01:38:28.312Z,61.66
2019-06-10T01:41:15.556Z,61.71
2019-06-10T01:44:02.655Z,63.58
2019-06-10T01:46:48.775Z,64.06
2019-06-10T01:49:34.980Z,64.21
2019-06-10T01:52:21.218Z,65.14
2019-06-10T01:55:07.947Z,66.88
2019-06-10T01:57:54.081Z,68.28
2019-06-10T02:01:05.561Z,67.00
2019-06-10T02:03:51.980Z,66.54
2019-06-10T02:06:40.503Z,66.16
2019-06-10T02:09:26.363Z,66.26
2019-06-10T02:12:15.880Z,68.70
2019-06-10T02:15:01.263Z,74.21
2019-06-10T02:17:47.380Z,72.80
2019-06-10T02:20:33.725Z,73.28
2019-06-10T02:23:23.174Z,72.64
2019-06-10T02:26:11.928Z,70.89
2019-06-10T02:29:00.674Z,72.68
2019-06-10T02:31:47.192Z,71.48
2019-06-10T02:34:39.094Z,69.98
2019-06-10T02:37:25.540Z,69.73
2019-06-10T02:40:09.680Z,69.46
2019-06-10T02:42:57.871Z,69.55
2019-06-10T02:45:44.763Z,69.51
2019-06-10T02:48:34.817Z,70.05
2019-06-10T02:51:22.074Z,70.60
2019-06-10T02:54:07.854Z,69.27
2019-06-10T02:56:54.144Z,69.78
2019-06-10T02:59:43.411Z,74.63
2019-06-10T03:02:32.161Z,75.06
2019-06-10T03:05:19.320Z,75.46
2019-06-10T03:08:05.122Z,76.03
2019-06-10T03:10:54.402Z,74.69
2019-06-10T03:13:39.340Z,74.62
2019-06-10T03:16:42.285Z,72.12
2019-06-10T03:19:42.234Z,71.37
2019-06-10T03:22:16.385Z,71.25
2019-06-10T03:25:03.034Z,71.23
2019-06-10T03:27:49.181Z,70.77
2019-06-10T03:30:47.403Z,70.20
2019-06-10T03:33:33.114Z,73.10
2019-06-10T03:36:12.463Z,74.39
2019-06-10T03:38:59.095Z,75.35
2019-06-10T03:41:45.375Z,74.39
2019-06-10T03:44:33.058Z,74.03
2019-06-10T03:47:19.728Z,72.98
2019-06-10T03:50:06.140Z,72.90
2019-06-10T03:52:52.492Z,72.93
2019-06-10T03:55:39.136Z,72.74
2019-06-10T03:58:27.554Z,71.76
2019-06-10T04:01:13.714Z,71.16
2019-06-10T04:04:02.198Z,70.79
2019-06-10T04:06:47.685Z,70.62
2019-06-10T04:09:33.961Z,70.74
2019-06-10T04:12:20.059Z,70.67
2019-06-10T04:15:06.535Z,70.84
2019-06-10T04:17:53.085Z,70.13
2019-06-10T04:20:39.729Z,70.16
2019-06-10T04:23:27.242Z,69.39
2019-06-10T04:26:14.325Z,70.00
2019-06-10T04:29:02.504Z,72.18
2019-06-10T04:31:48.652Z,73.81
2019-06-10T04:34:34.800Z,72.16
2019-06-10T04:37:22.984Z,70.44
2019-06-10T04:40:09.227Z,69.63
2019-06-10T04:42:55.574Z,71.42
2019-06-10T04:45:42.986Z,78.86
2019-06-10T04:48:29.467Z,80.46
2019-06-10T04:51:15.840Z,79.13
2019-06-10T04:54:02.994Z,78.46
2019-06-10T04:56:49.355Z,78.11
2019-06-10T04:59:35.555Z,77.75
2019-06-10T05:02:24.814Z,77.49
2019-06-10T05:05:09.946Z,77.86
2019-06-10T05:07:56.405Z,77.81
2019-06-10T05:10:42.640Z,77.54
2019-06-10T05:13:30.008Z,77.10
2019-06-10T05:16:16.765Z,75.56
2019-06-10T05:19:03.856Z,73.56
2019-06-10T05:21:52.306Z,73.18
2019-06-10T05:24:38.410Z,73.57
2019-06-10T05:27:25.734Z,74.08
2019-06-10T05:30:13.494Z,71.60
2019-06-10T05:32:59.875Z,69.26
2019-06-10T05:35:46.064Z,68.99
2019-06-10T05:38:35.210Z,66.92
2019-06-10T05:41:24.153Z,66.14
2019-06-10T05:44:08.837Z,66.07
2019-06-10T05:46:55.075Z,66.27
2019-06-10T05:49:43.108Z,66.94
2019-06-10T05:52:29.761Z,68.15
2019-06-10T05:55:17.244Z,69.62
2019-06-10T05:58:03.659Z,68.22
2019-06-10T06:00:49.692Z,66.09
2019-06-10T06:03:36.982Z,67.40
2019-06-10T06:06:23.489Z,67.64
2019-06-10T06:09:09.619Z,65.43
2019-06-10T06:11:55.669Z,66.24
2019-06-10T06:14:42.578Z,66.59
2019-06-10T06:17:29.880Z,66.12
2019-06-10T06:20:16.345Z,67.28
2019-06-10T06:23:02.864Z,67.17
2019-06-10T06:25:49.490Z,67.33
2019-06-10T06:28:36.140Z,66.77
2019-06-10T06:31:23.192Z,65.76
2019-06-10T06:34:09.864Z,64.66
2019-06-10T06:36:55.984Z,65.21
2019-06-10T06:39:42.895Z,63.19
2019-06-10T06:42:29.534Z,63.35
2019-06-10T06:45:16.031Z,62.70
2019-06-10T06:48:03.027Z,61.39
2019-06-10T06:51:02.018Z,59.09
2019-06-10T06:53:45.212Z,59.97
2019-06-10T06:56:25.814Z,59.54
2019-06-10T06:59:13.178Z,59.12
2019-06-10T07:01:59.884Z,59.22
2019-06-10T07:04:45.964Z,57.77
2019-06-10T07:07:34.560Z,57.80
2019-06-10T07:10:22.829Z,57.23
2019-06-10T07:13:09.328Z,55.98
2019-06-10T07:15:55.332Z,54.87
2019-06-10T07:18:49.085Z,55.08
2019-06-10T07:21:29.693Z,55.05
2019-06-10T07:24:15.849Z,56.52
2019-06-10T07:27:02.741Z,56.65
2019-06-10T07:29:49.039Z,57.93
2019-06-10T07:32:37.342Z,57.43
2019-06-10T07:35:23.349Z,57.92
2019-06-10T07:38:12.103Z,57.09
2019-06-10T07:40:57.560Z,56.57
2019-06-10T07:43:49.531Z,54.74
2019-06-10T07:46:33.492Z,54.36
2019-06-10T07:49:20.087Z,53.97
2019-06-10T07:52:15.849Z,53.03
2019-06-10T07:54:54.576Z,53.24
2019-06-10T07:57:43.931Z,52.78
2019-06-10T08:00:28.773Z,52.08
2019-06-10T08:03:14.915Z,52.10
2019-06-10T08:06:03.342Z,49.69
2019-06-10T08:08:49.219Z,49.13
2019-06-10T08:11:35.474Z,47.88
2019-06-10T08:14:22.267Z,48.08
2019-06-10T08:17:08.679Z,46.88
2019-06-10T08:19:54.777Z,46.92
2019-06-10T08:22:50.109Z,45.53
2019-06-10T08:25:29.075Z,46.59
2019-06-10T08:28:15.451Z,44.83
2019-06-10T08:31:03.589Z,46.92
2019-06-10T08:33:49.892Z,45.63
2019-06-10T08:36:36.328Z,45.69
2019-06-10T08:39:23.265Z,45.97
2019-06-10T08:42:12.329Z,46.30
2019-06-10T08:45:00.064Z,46.24
2019-06-10T08:47:47.692Z,45.96
2019-06-10T08:50:34.539Z,44.78
2019-06-10T08:53:22.725Z,44.41
2019-06-10T08:56:09.264Z,44.27
2019-06-10T08:58:55.329Z,45.91
2019-06-10T09:01:45.948Z,46.02
2019-06-10T09:04:29.700Z,50.35
2019-06-10T09:07:15.954Z,46.81
2019-06-10T09:10:02.968Z,48.65
2019-06-10T09:12:52.064Z,47.25
2019-06-10T09:15:37.014Z,45.51
2019-06-10T09:18:23.397Z,44.88
2019-06-10T09:21:09.872Z,43.76
2019-06-10T09:23:59.961Z,42.81
2019-06-10T09:26:46.846Z,43.34
2019-06-10T09:29:33.024Z,43.59
2019-06-10T09:32:19.289Z,43.34
2019-06-10T09:35:06.454Z,43.45
2019-06-10T09:37:55.665Z,42.01
2019-06-10T09:40:57.627Z,40.24
2019-06-10T09:43:37.258Z,40.72
2019-06-10T09:46:28.400Z,40.48
2019-06-10T09:49:14.894Z,43.01
2019-06-10T09:52:03.319Z,43.61
2019-06-10T09:54:55.700Z,46.47
2019-06-10T09:57:37.500Z,46.09
2019-06-10T10:00:38.058Z,45.88
2019-06-10T10:03:24.275Z,45.22
2019-06-10T10:06:15.309Z,43.61
2019-06-10T10:08:58.706Z,47.48
2019-06-10T10:11:47.115Z,46.70
2019-06-10T10:14:33.570Z,48.82
2019-06-10T10:17:19.880Z,44.75
2019-06-10T10:20:06.733Z,47.85
2019-06-10T10:22:55.374Z,46.93
2019-06-10T10:25:44.916Z,46.32
2019-06-10T10:28:29.591Z,43.62
2019-06-10T10:31:15.574Z,43.28
2019-06-10T10:34:02.712Z,47.23
2019-06-10T10:36:50.911Z,47.22
2019-06-10T10:39:37.338Z,47.59
2019-06-10T10:42:23.840Z,49.31
2019-06-10T10:45:13.065Z,47.62
2019-06-10T10:47:58.966Z,48.72
2019-06-10T10:50:45.582Z,50.41
2019-06-10T10:53:32.885Z,49.63
2019-06-10T10:56:22.175Z,46.49
2019-06-10T10:59:07.868Z,45.63
2019-06-10T11:01:53.998Z,46.77
2019-06-10T11:04:44.144Z,45.09
2019-06-10T11:07:33.356Z,45.23
2019-06-10T11:10:18.518Z,45.39
2019-06-10T11:13:07.063Z,45.79
2019-06-10T11:15:56.623Z,45.60
2019-06-10T11:18:42.268Z,45.22
2019-06-10T11:21:28.748Z,45.62
2019-06-10T11:24:31.910Z,44.12
2019-06-10T11:27:03.874Z,44.62
2019-06-10T11:29:50.286Z,44.96
2019-06-10T11:32:38.088Z,44.66
2019-06-10T11:35:24.521Z,46.26
2019-06-10T11:38:12.843Z,44.94
2019-06-10T11:41:00.147Z,44.08
2019-06-10T11:43:46.643Z,44.59
2019-06-10T11:46:33.208Z,45.48
2019-06-10T11:49:19.554Z,44.65
2019-06-10T11:52:05.883Z,43.36
2019-06-10T11:55:07.247Z,43.68
2019-06-10T11:57:42.434Z,45.71
2019-06-10T12:00:29.399Z,50.84
2019-06-10T12:03:15.704Z,50.83
2019-06-10T12:06:05.319Z,50.73
2019-06-10T12:08:53.591Z,52.54
2019-06-10T12:11:38.607Z,53.07
2019-06-10T12:14:27.170Z,52.40
2019-06-10T12:17:24.826Z,52.99
2019-06-10T12:20:03.177Z,54.38
2019-06-10T12:22:49.616Z,52.25
2019-06-10T12:25:39.607Z,52.37
2019-06-10T12:28:24.323Z,52.65
2019-06-10T12:31:13.546Z,52.65
2019-06-10T12:34:00.875Z,52.00
2019-06-10T12:36:46.848Z,52.65
2019-06-10T12:39:33.106Z,50.72
2019-06-10T12:42:19.439Z,50.72
2019-06-10T12:45:08.512Z,52.59
2019-06-10T12:47:56.719Z,53.80
2019-06-10T12:50:42.848Z,51.81
2019-06-10T12:53:29.339Z,53.28
2019-06-10T12:56:15.391Z,54.03
2019-06-10T12:59:06.690Z,54.63
2019-06-10T13:01:49.610Z,53.04
2019-06-10T13:04:35.838Z,52.43
2019-06-10T13:07:23.346Z,51.43
2019-06-10T13:10:11.997Z,51.43
2019-06-10T13:12:57.919Z,52.05
2019-06-10T13:15:44.205Z,52.81
2019-06-10T13:18:30.604Z,53.53
2019-06-10T13:21:17.863Z,54.00
2019-06-10T13:24:05.457Z,53.92
2019-06-10T13:26:52.360Z,53.25
2019-06-10T13:29:38.473Z,52.98
2019-06-10T13:32:24.592Z,53.40
2019-06-10T13:35:12.451Z,51.18
2019-06-10T13:37:59.080Z,49.90
2019-06-10T13:40:45.173Z,50.22
2019-06-10T13:43:33.810Z,51.24
2019-06-10T13:46:24.390Z,52.63
2019-06-10T13:49:10.630Z,51.71
2019-06-10T13:51:56.198Z,50.16
2019-06-10T13:54:45.397Z,51.97
2019-06-10T13:57:32.216Z,50.47
2019-06-10T14:00:24.136Z,51.80
2019-06-10T14:03:12.765Z,52.75
2019-06-10T14:06:01.267Z,52.02
2019-06-10T14:08:44.576Z,52.57
2019-06-10T14:11:33.183Z,53.25
2019-06-10T14:14:18.886Z,51.25
2019-06-10T14:17:05.632Z,52.82
2019-06-10T14:19:51.949Z,51.81
2019-06-10T14:22:38.058Z,51.06
2019-06-10T14:25:24.203Z,52.50
2019-06-10T14:28:12.668Z,49.19
2019-06-10T14:30:58.828Z,50.64
2019-06-10T14:33:44.986Z,53.28
2019-06-10T14:36:32.536Z,52.86
2019-06-10T14:39:18.929Z,53.52
2019-06-10T14:42:06.881Z,52.87
2019-06-10T14:44:53.183Z,52.74
2019-06-10T14:47:39.349Z,53.83
2019-06-10T14:50:25.709Z,53.72
2019-06-10T14:53:14.183Z,53.72
2019-06-10T14:56:03.310Z,53.86
2019-06-10T14:58:48.446Z,53.86
2019-06-10T15:01:34.604Z,54.34
2019-06-10T15:04:22.449Z,55.80
2019-06-10T15:07:09.374Z,54.90
2019-06-10T15:09:55.639Z,55.28
2019-06-10T15:12:43.459Z,55.35
2019-06-10T15:15:29.693Z,56.70
2019-06-10T15:18:18.223Z,56.71
2019-06-10T15:21:04.443Z,57.05
2019-06-10T15:23:52.342Z,56.54
2019-06-10T15:26:39.108Z,57.17
2019-06-10T15:29:25.090Z,57.17
2019-06-10T15:32:24.443Z,56.97
2019-06-10T15:34:59.728Z,56.59
2019-06-10T15:37:45.953Z,57.13
2019-06-10T15:40:32.532Z,57.60
2019-06-10T15:43:20.767Z,56.46
2019-06-10T15:46:06.970Z,56.60
2019-06-10T15:48:54.163Z,57.52
2019-06-10T15:51:43.360Z,57.41
2019-06-10T15:54:29.168Z,56.98
2019-06-10T15:57:31.984Z,57.76
2019-06-10T16:00:11.274Z,57.82
2019-06-10T16:02:53.235Z,57.93
2019-06-10T16:05:39.405Z,56.89
2019-06-10T16:08:25.860Z,58.31
2019-06-10T16:11:16.308Z,58.52
2019-06-10T16:14:02.694Z,59.68
2019-06-10T16:16:48.530Z,61.10
2019-06-10T16:19:34.941Z,62.58
2019-06-10T16:22:24.409Z,64.25
2019-06-10T16:25:09.676Z,66.06
2019-06-10T16:27:55.652Z,68.62
2019-06-10T16:30:42.802Z,72.03
2019-06-10T16:33:29.725Z,76.02
2019-06-10T16:36:17.157Z,76.08
2019-06-10T16:39:06.115Z,75.63
2019-06-10T16:44:38.483Z,76.34
2019-06-10T16:47:26.891Z,78.17
2019-06-10T16:50:13.145Z,80.06
2019-06-10T16:52:59.638Z,79.43
2019-06-10T16:55:45.700Z,80.16
2019-06-10T16:58:33.380Z,82.34
2019-06-10T17:01:23.265Z,81.96
2019-06-10T17:04:09.019Z,83.68
2019-06-10T17:06:55.355Z,83.51
2019-06-10T17:09:42.148Z,81.13
2019-06-10T17:12:28.808Z,82.61
2019-06-10T17:15:15.658Z,83.89
2019-06-10T17:18:02.854Z,82.33
2019-06-10T17:20:49.722Z,80.86
2019-06-10T17:23:36.892Z,80.42
2019-06-10T17:26:30.618Z,81.43
2019-06-10T17:29:11.980Z,81.68
2019-06-10T17:31:58.640Z,84.79
2019-06-10T17:34:45.640Z,83.60
2019-06-10T17:37:33.729Z,83.91
2019-06-10T17:40:22.998Z,84.00
2019-06-10T17:43:08.670Z,82.41
2019-06-10T17:45:55.255Z,82.52
2019-06-10T17:48:43.178Z,82.81
2019-06-10T17:51:31.667Z,82.57
2019-06-10T17:54:18.781Z,82.61
2019-06-10T17:57:05.234Z,83.74
2019-06-10T17:59:52.471Z,84.57
2019-06-10T18:02:39.506Z,84.49
2019-06-10T18:05:27.248Z,84.96
2019-06-10T18:08:13.690Z,83.75
2019-06-10T18:11:03.032Z,83.62
2019-06-10T18:13:49.610Z,84.41
2019-06-10T18:16:36.758Z,83.78
2019-06-10T18:19:24.196Z,83.62
2019-06-10T18:22:12.616Z,82.75
2019-06-10T18:24:59.030Z,81.26
2019-06-10T18:27:45.755Z,82.27
2019-06-10T18:30:35.674Z,81.93
2019-06-10T18:33:22.974Z,81.81
2019-06-10T18:36:12.036Z,80.98
2019-06-10T18:38:58.540Z,80.27
2019-06-10T18:41:45.996Z,85.00
2019-06-10T18:44:35.592Z,84.93
2019-06-10T18:47:22.420Z,84.40
2019-06-10T18:50:09.730Z,83.74
2019-06-10T18:52:58.293Z,83.05
2019-06-10T18:55:45.031Z,82.37
2019-06-10T18:58:34.231Z,81.83
2019-06-10T19:01:22.524Z,81.81
2019-06-10T19:04:09.273Z,82.02
2019-06-10T19:06:55.979Z,82.74
2019-06-10T19:09:47.803Z,82.31
2019-06-10T19:12:33.677Z,83.17
2019-06-10T19:15:20.230Z,82.19
2019-06-10T19:18:06.766Z,80.98
2019-06-10T19:20:53.693Z,80.96
2019-06-10T19:23:43.551Z,80.61
2019-06-10T19:26:30.399Z,80.62
2019-06-10T19:29:29.952Z,81.07
2019-06-10T19:32:06.060Z,80.70
2019-06-10T19:34:52.713Z,80.61
2019-06-10T19:37:40.495Z,80.33
2019-06-10T19:40:27.196Z,79.61
2019-06-10T19:43:13.936Z,78.73
2019-06-10T19:46:04.263Z,78.22
2019-06-10T19:48:58.465Z,77.94
2019-06-10T19:51:38.895Z,77.72
2019-06-10T19:54:25.735Z,76.97
2019-06-10T19:57:12.946Z,77.27
2019-06-10T20:00:10.696Z,76.75
2019-06-10T20:02:48.466Z,77.09
2019-06-10T20:05:36.189Z,77.25
2019-06-10T20:08:22.867Z,77.50
2019-06-10T20:11:09.495Z,77.24
2019-06-10T20:13:56.088Z,77.16
2019-06-10T20:16:45.659Z,77.14
2019-06-10T20:19:32.627Z,77.22
2019-06-10T20:22:19.440Z,79.07
2019-06-10T20:25:06.365Z,80.28
2019-06-10T20:27:52.705Z,82.14
2019-06-10T20:30:39.523Z,82.75
2019-06-10T20:33:37.022Z,83.43
2019-06-10T20:36:27.056Z,83.58
2019-06-10T20:39:11.885Z,83.07
2019-06-10T20:41:58.780Z,82.02
2019-06-10T20:44:46.278Z,83.86
2019-06-10T20:47:33.465Z,84.70
2019-06-10T20:50:21.161Z,83.85
2019-06-10T20:53:14.772Z,83.65
2019-06-10T20:55:57.715Z,83.14
2019-06-10T20:58:46.454Z,83.24
2019-06-10T21:01:33.286Z,84.13
2019-06-10T21:04:19.416Z,83.98
2019-06-10T21:07:06.375Z,84.10
2019-06-10T21:09:53.506Z,84.59
2019-06-10T21:12:39.996Z,86.52
2019-06-10T21:15:26.050Z,85.62
2019-06-10T21:18:13.237Z,85.59
2019-06-10T21:20:59.536Z,84.77
2019-06-10T21:23:46.433Z,84.41
2019-06-10T21:26:34.125Z,84.27
2019-06-10T21:29:20.435Z,84.46
2019-06-10T21:32:06.591Z,84.05
2019-06-10T21:34:53.927Z,83.72
2019-06-10T21:37:42.551Z,84.46
2019-06-10T21:40:28.474Z,86.44
2019-06-10T21:43:14.640Z,86.54
2019-06-10T21:46:03.363Z,86.71
2019-06-10T21:48:50.255Z,86.41
2019-06-10T21:51:36.525Z,86.64
2019-06-10T21:54:22.875Z,87.09
2019-06-10T21:57:10.175Z,87.36
2019-06-10T21:59:56.191Z,87.18
2019-06-10T22:02:44.534Z,86.77
2019-06-10T22:05:33.165Z,86.37
2019-06-10T22:08:19.640Z,85.93
2019-06-10T22:11:05.844Z,85.65
2019-06-10T22:13:53.280Z,85.97
2019-06-10T22:16:42.175Z,85.82
2019-06-10T22:19:28.545Z,85.97
2019-06-10T22:22:15.035Z,85.33
2019-06-10T22:25:02.911Z,88.11
2019-06-10T22:27:50.030Z,91.10
2019-06-10T22:30:36.400Z,91.16
2019-06-10T22:33:22.791Z,89.79
2019-06-10T22:36:12.959Z,88.95
2019-06-10T22:38:59.536Z,88.79
2019-06-10T22:41:46.779Z,88.71
2019-06-10T22:44:33.214Z,88.24
2019-06-10T22:47:19.605Z,88.08
2019-06-10T22:50:07.662Z,88.11
2019-06-10T22:52:56.159Z,88.95
2019-06-10T22:55:43.269Z,88.42
2019-06-10T22:58:29.945Z,88.41
2019-06-10T23:01:30.860Z,88.61
2019-06-10T23:04:04.190Z,88.35
2019-06-10T23:06:50.304Z,88.12
2019-06-10T23:09:36.520Z,87.91
2019-06-10T23:12:22.930Z,88.19
2019-06-10T23:15:09.536Z,88.53
2019-06-10T23:17:57.478Z,88.95
2019-06-10T23:20:44.301Z,88.38
2019-06-10T23:23:32.613Z,88.27
2019-06-10T23:26:18.785Z,87.73
2019-06-10T23:29:05.880Z,87.10
2019-06-10T23:31:58.972Z,86.87
2019-06-10T23:34:42.229Z,86.72
2019-06-10T23:37:28.915Z,87.00
2019-06-10T23:40:15.406Z,87.88
2019-06-10T23:43:03.908Z,86.86
2019-06-10T23:45:51.120Z,84.92
2019-06-10T23:48:37.781Z,84.96
2019-06-10T23:51:24.367Z,84.49
2019-06-10T23:54:12.654Z,83.89
2019-06-10T23:56:58.910Z,83.15
2019-06-10T23:59:44.991Z,82.59
